Latest Coastal Weather Observations for Bundaberg

IDQ60701

Issued at 5:42 am EST Sunday 4 December 2016 (issued every 10 minutes, with the page automatically refreshed every 10 minutes)

About coastal observations | Map of coastal stations | Coastal observations for QLD | Marine services | Other Formats
Station Details ID: 039128 Name: BUNDABERG AERO Lat: -24.91 Lon: 152.32 Height: 30.82 m
Data from the previous 72 hours. | See also: Recent months at Bundaberg
Date/Time
EST
Temp
°C
Wind Pressure Rain since
9am
mm
Weather Cloud Vis
km
Sea
Height
m
Swell
Dir  Spd
kts
Gust
kts
hPa Trend Height
m
Period
s
Dir
04/05:30am 22.3 WNW 6 7 1014.8 - 2.4 - - 10 - - - -
04/05:00am 21.6 NW 4 5 1014.5 - 2.4 - - 10 - - - -
04/04:30am 21.9 CALM 0 0 1014.1 - 2.4 - - 10 - - - -
04/04:00am 22.2 CALM 0 0 1013.9 - 2.4 - - 10 - - - -
04/03:30am 22.2 NW 5 6 1013.6 - 2.4 - - 10 - - - -
04/03:00am 22.6 NNW 6 7 1013.3 - 2.4 - - 10 - - - -
04/02:30am 23.4 N 6 7 1013.6 - 2.4 - - 10 - - - -
04/02:00am 24.2 NNE 5 11 1013.6 - 2.4 - Partly cloudy 10 - - - -
04/01:30am 23.8 NE 15 21 1012.5 - 2.4 - Partly cloudy 10 - - - -
04/01:00am 23.4 NE 12 16 1014.2 - 2.4 - Partly cloudy 10 - - - -
04/12:30am 23.4 N 16 22 1016.0 - 2.2 - Partly cloudy 10 - - - -
04/12:13am 23.5 N 16 23 1016.0 - 1.8 - Partly cloudy 10 - - - -
04/12:00am 23.5 NW 8 12 1018.1 - 1.2 Rain Cloudy 10 - - - -
 
Date/Time
EST
Temp
°C
Wind Pressure Rain since
9am
mm
Weather Cloud Vis
km
Sea
Height
m
Swell
Dir  Spd
kts
Gust
kts
hPa Trend Height
m
Period
s
Dir
03/11:30pm 23.1 E 3 6 1019.0 - 0.8 - Partly cloudy 10 - - - -
03/11:00pm 23.3 ESE 13 18 1019.7 - 0.6 - Partly cloudy 10 - - - -
03/10:30pm 24.0 SSE 11 15 1020.0 - 0.2 - Partly cloudy 10 - - - -
03/10:00pm 25.6 SE 14 21 1019.6 - 0.0 - Partly cloudy 10 - - - -
03/09:54pm 25.4 SSE 13 19 1019.5 - 0.0 - Partly cloudy 10 - - - -
03/09:35pm 25.3 NNE 9 15 1017.5 - 0.0 - Partly cloudy 10 - - - -
03/09:30pm 25.2 N 10 15 1015.2 - 0.0 - - 10 - - - -
03/09:00pm 25.0 NNE 11 15 1014.6 - 0.0 - Mostly clear 10 - - - -
03/08:30pm 25.1 N 10 13 1014.7 - 0.0 - - 10 - - - -
03/08:00pm 25.1 N 11 14 1014.0 - 0.0 - - 10 - - - -
03/07:30pm 25.1 N 11 15 1013.5 - 0.0 - Partly cloudy 10 - - - -
03/07:00pm 25.1 N 12 15 1012.9 - 0.0 - Partly cloudy 10 - - - -
03/06:30pm 25.4 N 13 17 1012.8 - 0.0 - - 10 - - - -
03/06:00pm 25.7 NNE 14 19 1012.4 - 0.0 - Mostly clear 10 - - - -
03/05:30pm 26.5 NNE 15 19 1012.3 - 0.0 - - 10 - - - -
03/05:00pm 27.1 NNE 16 21 1012.2 - 0.0 - - 10 - - - -
03/04:30pm 28.1 NNE 16 21 1012.0 - 0.0 - - 10 - - - -
03/04:00pm 28.4 NNE 15 19 1012.3 - 0.0 - - 10 - - - -
03/03:30pm 28.9 N 14 18 1012.5 - 0.0 - - 10 - - - -
03/03:00pm 30.2 N 14 20 1013.0 - 0.0 - - 10 - - - -
03/02:30pm 29.7 N 13 18 1013.1 - 0.0 - - 10 - - - -
03/02:00pm 29.4 N 12 18 1013.4 - 0.0 - Partly cloudy 10 - - - -
03/01:30pm 30.2 N 11 15 1013.6 - 0.0 - Partly cloudy 10 - - - -
03/01:00pm 29.5 N 12 23 1013.8 - 0.0 - Partly cloudy 10 - - - -
03/12:30pm 29.6 N 11 18 1014.2 - 0.0 - Partly cloudy 10 - - - -
03/12:00pm 29.3 N 11 17 1014.5 - 0.0 - Mostly clear 10 - - - -
03/11:30am 30.4 NNE 12 15 1014.4 - 0.0 - Partly cloudy 10 - - - -
03/11:00am 29.1 N 12 18 1014.8 - 0.0 - Partly cloudy 10 - - - -
03/10:30am 29.3 N 12 19 1015.0 - 0.0 - Partly cloudy 10 - - - -
03/10:00am 28.7 N 10 14 1015.3 - 0.0 - Partly cloudy 10 - - - -
03/09:30am 28.6 N 12 15 1015.4 - 0.0 - Partly cloudy 10 - - - -
03/09:00am 28.6 N 12 18 1015.6 - 0.0 - Cloudy 10 - - - -
03/08:30am 27.6 N 12 15 1015.5 - 0.0 - Partly cloudy 10 - - - -
03/08:00am 27.6 N 11 15 1015.4 - 0.0 - Partly cloudy 10 - - - -
03/07:30am 26.7 N 11 16 1015.1 - 0.0 - Partly cloudy 10 - - - -
03/07:00am 25.5 N 11 15 1014.9 - 0.0 - Partly cloudy 10 - - - -
03/06:30am 25.6 N 8 10 1014.7 - 0.0 - Partly cloudy 10 - - - -
03/06:00am 24.4 N 6 8 1014.4 - 0.0 - Mostly clear 10 - - - -
03/05:30am 23.8 N 5 7 1013.9 - 0.0 - Partly cloudy 10 - - - -
03/05:00am 23.3 N 5 7 1013.4 - 0.0 - Partly cloudy 10 - - - -
03/04:30am 23.0 NNW 5 7 1013.2 - 0.0 - Partly cloudy 10 - - - -
03/04:00am 23.6 NNE 9 11 1012.1 - 0.0 - - 10 - - - -
03/03:30am 23.7 N 8 10 1012.1 - 0.0 - - 10 - - - -
03/03:00am 23.8 N 8 11 1012.0 - 0.0 - - 10 - - - -
03/02:30am 23.9 N 8 10 1012.3 - 0.0 - Partly cloudy 10 - - - -
03/02:00am 23.9 N 7 10 1012.5 - 0.0 - Partly cloudy 10 - - - -
03/01:30am 24.0 N 7 9 1012.7 - 0.0 - Partly cloudy 10 - - - -
03/01:00am 24.0 N 7 10 1012.8 - 0.0 - - 10 - - - -
03/12:30am 24.2 N 7 9 1013.0 - 0.0 - - 10 - - - -
03/12:00am 24.3 N 8 10 1013.2 - 0.0 - Mostly clear 10 - - - -
 
Date/Time
EST
Temp
°C
Wind Pressure Rain since
9am
mm
Weather Cloud Vis
km
Sea
Height
m
Swell
Dir  Spd
kts
Gust
kts
hPa Trend Height
m
Period
s
Dir
02/11:30pm 24.5 N 9 12 1013.3 - 0.0 - - 10 - - - -
02/11:00pm 24.7 N 10 14 1013.5 - 0.0 - Partly cloudy 10 - - - -
02/10:50pm 24.8 N 11 15 1013.4 - 0.0 - Partly cloudy 10 - - - -
02/10:36pm 24.8 N 10 13 1013.4 - 0.0 - Partly cloudy 10 - - - -
02/10:30pm 24.8 N 10 13 1013.4 - 0.0 - Partly cloudy 10 - - - -
02/10:00pm 24.8 N 11 13 1013.4 - 0.0 - Partly cloudy 10 - - - -
02/09:30pm 24.8 N 10 13 1013.1 - 0.0 - Partly cloudy 10 - - - -
02/09:00pm 24.9 N 10 14 1013.0 - 0.0 - Mostly clear 10 - - - -
02/08:31pm 25.0 N 11 15 1012.7 - 0.0 - Partly cloudy 10 - - - -
02/08:30pm 25.0 N 11 15 1012.7 - 0.0 - Partly cloudy 10 - - - -
02/08:14pm 25.0 N 11 14 1012.7 - 0.0 - Partly cloudy 10 - - - -
02/08:00pm 25.1 N 11 15 1012.5 - 0.0 - Partly cloudy 10 - - - -
02/07:56pm 25.1 N 11 15 1012.4 - 0.0 - Partly cloudy 10 - - - -
02/07:30pm 25.1 N 11 15 1012.1 - 0.0 - Partly cloudy 10 - - - -
02/07:21pm 25.2 N 11 15 1012.0 - 0.0 - Partly cloudy 10 - - - -
02/07:00pm 25.2 N 12 15 1011.8 - 0.0 - Partly cloudy 10 - - - -
02/06:30pm 25.5 N 13 17 1011.5 - 0.0 - Partly cloudy 10 - - - -
02/06:00pm 26.0 N 14 18 1011.2 - 0.0 - - 10 - - - -
02/05:30pm 26.5 N 14 19 1010.8 - 0.0 - - 10 - - - -
02/05:00pm 27.0 N 16 21 1010.6 - 0.0 - - 10 - - - -
02/04:30pm 27.7 N 17 21 1010.3 - 0.0 - - 10 - - - -
02/04:00pm 28.3 N 15 20 1010.3 - 0.0 - - 10 - - - -
02/03:30pm 28.5 N 16 21 1010.3 - 0.0 - - 10 - - - -
02/03:00pm 28.6 N 15 20 1010.6 - 0.0 - - 10 - - - -
02/02:30pm 28.9 N 16 20 1010.7 - 0.0 - - 10 - - - -
02/02:00pm 29.0 N 16 21 1010.7 - 0.0 - - 10 - - - -
02/01:30pm 29.2 N 15 21 1011.0 - 0.0 - - 10 - - - -
02/01:00pm 29.1 N 14 18 1011.5 - 0.0 - - 10 - - - -
02/12:30pm 29.5 N 14 22 1011.6 - 0.0 - Partly cloudy 10 - - - -
02/12:00pm 28.6 N 13 18 1011.8 - 0.0 - - 10 - - - -
02/11:30am 29.6 N 14 19 1012.1 - 0.0 - - 10 - - - -
02/11:00am 29.4 N 14 19 1012.5 - 0.0 - Partly cloudy 10 - - - -
02/10:30am 28.7 N 12 19 1012.9 - 0.0 - Partly cloudy 10 - - - -
02/10:00am 28.3 N 12 18 1013.3 - 0.0 - Partly cloudy 10 - - - -
02/09:30am 28.6 N 14 19 1013.2 - 0.0 - Partly cloudy 10 - - - -
02/09:00am 28.3 N 14 20 1013.3 - 0.0 - Partly cloudy 10 - - - -
02/08:30am 27.3 N 13 18 1013.1 - 0.0 - Partly cloudy 10 - - - -
02/08:00am 26.9 NNW 14 19 1013.0 - 0.0 - Partly cloudy 10 - - - -
02/07:30am 26.5 N 14 18 1013.2 - 0.0 - Partly cloudy 10 - - - -
02/07:00am 26.1 N 14 18 1013.0 - 0.0 - Partly cloudy 10 - - - -
02/06:30am 25.4 N 9 13 1012.9 - 0.0 - - 10 - - - -
02/06:00am 24.5 N 6 8 1013.0 - 0.0 - - 10 - - - -
02/05:30am 22.9 N 4 5 1012.7 - 0.0 - - 10 - - - -
02/05:00am 22.1 N 4 6 1012.3 - 0.0 - - 10 - - - -
02/04:30am 22.6 N 5 7 1011.9 - 0.0 - Partly cloudy 10 - - - -
02/04:00am 22.9 N 6 7 1011.6 - 0.0 - Partly cloudy 10 - - - -
02/03:30am 22.9 N 5 6 1011.2 - 0.0 - Partly cloudy 10 - - - -
02/03:00am 23.1 N 6 9 1010.8 - 0.0 - Mostly clear 10 - - - -
02/02:30am 23.2 N 8 11 1010.6 - 0.0 - Partly cloudy 10 - - - -
02/02:00am 23.3 N 8 10 1010.6 - 0.0 - Partly cloudy 10 - - - -
02/01:30am 23.5 N 8 11 1010.8 - 0.0 - Partly cloudy 10 - - - -
02/01:00am 23.6 N 9 12 1011.0 - 0.0 - - 10 - - - -
02/12:30am 23.7 N 9 12 1011.2 - 0.0 - - 10 - - - -
02/12:00am 23.6 NNE 8 11 1011.6 - 0.0 - - 10 - - - -
 
Date/Time
EST
Temp
°C
Wind Pressure Rain since
9am
mm
Weather Cloud Vis
km
Sea
Height
m
Swell
Dir  Spd
kts
Gust
kts
hPa Trend Height
m
Period
s
Dir
01/11:30pm 23.8 NNE 8 11 1012.0 - 0.0 - - 10 - - - -
01/11:00pm 24.0 NNE 7 9 1012.3 - 0.0 - Partly cloudy 10 - - - -
01/10:30pm 24.1 NNE 7 9 1012.3 - 0.0 - Partly cloudy 10 - - - -
01/10:00pm 24.1 NNE 7 11 1012.3 - 0.0 - Partly cloudy 10 - - - -
01/09:30pm 24.3 N 10 13 1011.5 - 0.0 - - 10 - - - -
01/09:00pm 24.3 N 12 16 1011.0 - 0.0 - - 10 - - - -
01/08:30pm 24.3 N 12 17 1010.8 - 0.0 - - 10 - - - -
01/08:00pm 24.4 NNE 15 18 1010.6 - 0.0 - Partly cloudy 10 - - - -
01/07:30pm 25.0 SSE 6 13 1010.8 - 0.0 - Partly cloudy 10 - - - -
01/07:22pm 25.0 WNW 4 7 1012.6 - 0.0 - Partly cloudy 10 - - - -
01/07:00pm 25.0 NNE 12 17 1010.6 - 0.0 - - 10 - - - -
01/06:30pm 25.1 NNE 15 21 1009.8 - 0.0 - - 10 - - - -
01/06:00pm 25.5 NNE 15 18 1009.4 - 0.0 - Mostly clear 10 - - - -
01/05:30pm 26.1 NNE 16 22 1008.7 - 0.0 - - 10 - - - -
01/05:00pm 26.6 NNE 16 20 1007.8 - 0.0 - - 10 - - - -
01/04:30pm 27.4 NNE 17 21 1007.5 - 0.0 - - 10 - - - -
01/04:00pm 27.8 N 15 21 1008.1 - 0.0 - - 10 - - - -
01/03:30pm 28.7 N 14 18 1008.5 - 0.0 - - 10 - - - -
01/03:00pm 28.4 NNE 14 18 1008.9 - 0.0 - - 10 - - - -
01/02:30pm 28.7 N 13 16 1009.2 - 0.0 - - 10 - - - -
01/02:00pm 29.0 N 13 17 1009.5 - 0.0 - - 10 - - - -
01/01:30pm 28.7 NNE 12 17 1009.9 - 0.0 - - 10 - - - -
01/01:00pm 29.8 N 12 16 1010.2 - 0.0 - - 10 - - - -
01/12:30pm 28.9 N 11 16 1010.8 - 0.0 - - 10 - - - -
01/12:00pm 28.9 N 9 13 1011.3 - 0.0 - - 10 - - - -
01/11:30am 28.5 NNE 10 14 1011.5 - 0.0 - - 10 - - - -
01/11:00am 28.4 N 9 14 1012.2 - 0.0 - - 10 - - - -
01/10:30am 28.4 N 9 17 1012.4 - 0.0 - - 10 - - - -
01/10:00am 28.0 NNW 9 13 1012.6 - 0.0 - - 10 - - - -
01/09:30am 26.9 NNW 7 11 1013.0 - 0.0 - - 10 - - - -
01/09:00am 26.7 NW 7 11 1013.1 - 0.2 - Mostly clear 10 - - - -
01/08:30am 26.3 NNW 9 12 1012.9 - 0.2 - Partly cloudy 10 - - - -
01/08:00am 26.0 NNW 8 11 1012.8 - 0.2 - Partly cloudy 10 - - - -
01/07:30am 24.7 N 8 10 1012.7 - 0.2 - Partly cloudy 10 - - - -
01/07:00am 24.5 NNE 3 9 1012.4 - 0.2 - - 10 - - - -
01/06:30am 21.9 CALM 0 0 1012.3 - 0.2 - - 10 - - - -
01/06:00am 20.1 SSE 3 4 1012.2 - 0.2 - - 10 - - - -

Other Formats:

Comma delimited format used in spreadsheet applications
http://www.bom.gov.au/fwo/IDQ60701/IDQ60701.94387.axf

JavaScript Object Notation format (JSON) in row-major order
http://www.bom.gov.au/fwo/IDQ60701/IDQ60701.94387.json